METAR Formatted Surface Weather Observation
Issued by NWS

Home | Current Version | Previous Version | Text Only | Print | Product List | Glossary On
Versions: 1 2 3
089
SAUS41 KRLX 280957
MTRCKB
METAR KCKB 280953Z AUTO 00000KT 10SM CLR 07/06 A2995 RMK AO2 SLP134
T00670056 TSNO



USA.gov is the U.S. government's official web portal to all federal, state and local government web resources and services.